Time;durP1;ratioP1;P1;durP2;ratioP2;P2;SDS_P1;SDS_P2;PMS_P1;PMS_P2;Temp;Humidity;BMP_temperature;BMP_pressure;BME280_temperature;BME280_humidity;BME280_pressure;Samples;Min_cycle;Max_cycle;Signal;HPM_P1;HPM_P2
2022/02/07 00:01:42;;;;;;;0.40;0.40;;;;;;;7.20;74.70;94256.69;5112954;28;20212;-87
2022/02/07 00:04:10;;;;;;;0.40;0.40;;;;;;;7.27;74.60;94357.38;5108873;28;20236;-86
2022/02/07 00:06:38;;;;;;;1.97;0.60;;;;;;;6.96;72.57;94373.06;5112093;28;20219;-85
2022/02/07 00:09:04;;;;;;;0.50;0.50;;;;;;;6.42;72.67;94372.72;5113502;28;20191;-88
2022/02/07 00:11:31;;;;;;;0.40;0.40;;;;;;;5.81;75.43;94382.38;5114245;28;20531;-87
2022/02/07 00:13:57;;;;;;;0.40;0.40;;;;;;;5.52;77.64;94375.53;5112432;28;20188;-86
2022/02/07 00:16:24;;;;;;;0.40;0.40;;;;;;;5.35;80.14;94346.03;5111815;28;20284;-87
2022/02/07 00:18:50;;;;;;;0.57;0.50;;;;;;;5.27;80.17;94318.03;5113013;28;20203;-88
2022/02/07 00:21:17;;;;;;;0.47;0.47;;;;;;;5.23;80.11;94322.69;5112840;28;20188;-86
2022/02/07 00:23:44;;;;;;;0.50;0.50;;;;;;;5.28;80.08;94327.28;5111512;28;20210;-86
2022/02/07 00:26:11;;;;;;;0.50;0.50;;;;;;;5.14;81.01;94344.16;5112384;28;20227;-88
2022/02/07 00:28:37;;;;;;;0.50;0.50;;;;;;;5.15;80.97;94364.41;5111126;28;20191;-89
2022/02/07 00:31:04;;;;;;;0.50;0.50;;;;;;;5.12;80.97;94366.50;5112988;28;20331;-86
2022/02/07 00:33:30;;;;;;;0.50;0.50;;;;;;;5.03;81.18;94373.41;5112491;28;20191;-87
2022/02/07 00:36:01;;;;;;;0.50;0.50;;;;;;;4.97;80.90;94365.69;5111899;28;20248;-88
2022/02/07 00:38:28;;;;;;;0.67;0.40;;;;;;;4.84;82.19;94354.28;5112108;28;20194;-87
2022/02/07 00:41:18;;;;;;;0.50;0.50;;;;;;;4.90;82.09;94344.38;5105797;28;20195;-85
2022/02/07 00:43:46;;;;;;;0.43;0.40;;;;;;;4.83;81.94;94339.16;5112072;28;20187;-87
2022/02/07 00:46:20;;;;;;;0.40;0.40;;;;;;;4.74;83.42;94304.50;5111883;28;20227;-86
2022/02/07 00:48:46;;;;;;;0.40;0.40;;;;;;;4.87;82.46;94317.44;5111244;28;20191;-85
2022/02/07 00:51:13;;;;;;;0.43;0.43;;;;;;;4.81;82.52;94336.78;5112023;28;20719;-88
2022/02/07 00:53:39;;;;;;;0.40;0.40;;;;;;;4.75;82.91;94347.69;5111330;28;20711;-87
2022/02/07 00:56:07;;;;;;;1.13;0.53;;;;;;;4.76;83.29;94362.00;5111770;28;20224;-86
2022/02/07 00:58:34;;;;;;;0.50;0.50;;;;;;;4.82;82.96;94365.59;5111683;27;20229;-87
2022/02/07 01:01:00;;;;;;;0.40;0.40;;;;;;;4.84;82.51;94368.78;5112589;28;20192;-86
2022/02/07 01:03:27;;;;;;;0.40;0.40;;;;;;;4.89;82.20;94393.78;5112172;28;20612;-86
2022/02/07 01:05:55;;;;;;;0.50;0.50;;;;;;;4.85;82.33;94423.91;5111463;28;20227;-87
2022/02/07 01:08:30;;;;;;;0.40;0.40;;;;;;;4.71;82.92;94428.00;5111833;28;20199;-86
2022/02/07 01:11:04;;;;;;;0.50;0.50;;;;;;;4.67;83.53;94436.94;5105732;28;20561;-85
2022/02/07 01:13:46;;;;;;;0.50;0.50;;;;;;;4.66;83.60;94442.22;5111699;28;20219;-86
2022/02/07 01:16:31;;;;;;;0.40;0.40;;;;;;;4.75;83.90;94452.19;5111383;28;20324;-87
2022/02/07 01:54:30;;;;;;;0.93;0.50;;;;;;;4.54;84.12;94597.28;5107568;28;20535;-86
2022/02/07 01:56:57;;;;;;;0.40;0.40;;;;;;;4.49;84.17;94600.31;5111039;28;20740;-86
2022/02/07 01:59:23;;;;;;;0.47;0.47;;;;;;;4.44;84.79;94600.00;5110968;28;20191;-83
2022/02/07 02:01:51;;;;;;;1.03;0.40;;;;;;;4.42;84.39;94601.13;5112077;28;20203;-86
2022/02/07 02:04:17;;;;;;;0.40;0.40;;;;;;;4.44;84.73;94624.69;5112064;28;20542;-87
2022/02/07 02:06:45;;;;;;;0.40;0.40;;;;;;;4.38;84.58;94638.09;5110113;28;20215;-86
2022/02/07 02:09:13;;;;;;;0.40;0.40;;;;;;;4.35;85.45;94651.16;5111888;28;20187;-85
2022/02/07 02:11:41;;;;;;;0.40;0.40;;;;;;;4.23;86.39;94670.28;5110706;28;20206;-85
2022/02/07 02:14:20;;;;;;;0.40;0.40;;;;;;;4.32;86.04;94682.03;5111169;28;20226;-86
2022/02/07 02:17:03;;;;;;;0.40;0.40;;;;;;;4.40;85.31;94685.38;5111318;28;20219;-86
2022/02/07 02:23:04;;;;;;;0.40;0.40;;;;;;;4.29;85.44;94698.44;5006073;28;20217;-86
2022/02/07 02:34:36;;;;;;;0.40;0.40;;;;;;;4.11;86.30;94702.91;5110408;28;20269;-85
2022/02/07 02:37:10;;;;;;;0.40;0.40;;;;;;;4.12;87.03;94714.69;5110254;28;20274;-86
2022/02/07 02:45:30;;;;;;;0.50;0.50;;;;;;;4.18;86.07;94754.00;5104695;28;20217;-83
2022/02/07 02:47:59;;;;;;;0.40;0.40;;;;;;;4.20;85.57;94757.19;5110907;28;20183;-86
2022/02/07 02:50:32;;;;;;;0.50;0.50;;;;;;;4.27;85.83;94740.31;5110306;28;20747;-88
2022/02/07 02:53:01;;;;;;;0.50;0.50;;;;;;;4.22;84.04;94730.63;5111361;28;20187;-84
2022/02/07 02:55:29;;;;;;;0.50;0.50;;;;;;;4.22;84.96;94727.28;5110338;28;20226;-86
2022/02/07 02:57:55;;;;;;;2.10;0.60;;;;;;;4.24;84.56;94756.72;5110916;28;20219;-85
2022/02/07 03:00:22;;;;;;;0.50;0.50;;;;;;;4.33;82.60;94763.41;5111037;28;20192;-86
2022/02/07 03:02:48;;;;;;;0.40;0.40;;;;;;;4.33;82.42;94791.44;5110631;28;20253;-86
2022/02/07 03:05:16;;;;;;;0.50;0.47;;;;;;;4.30;82.67;94798.59;5109777;28;20219;-88
2022/02/07 03:07:43;;;;;;;0.47;0.47;;;;;;;4.26;82.92;94810.06;5111289;28;20188;-86
2022/02/07 03:10:10;;;;;;;0.40;0.40;;;;;;;4.25;82.87;94818.66;5111237;28;20207;-86
2022/02/07 03:12:45;;;;;;;0.40;0.40;;;;;;;4.17;82.94;94834.72;5111894;28;20206;-86
2022/02/07 03:17:55;;;;;;;0.40;0.40;;;;;;;3.92;83.26;94854.22;5109859;28;20563;-86
2022/02/07 03:20:22;;;;;;;0.50;0.50;;;;;;;3.90;84.33;94840.84;5111061;28;20283;-86
2022/02/07 03:22:49;;;;;;;0.40;0.40;;;;;;;3.84;84.19;94828.75;5114064;28;20211;-86
2022/02/07 03:25:15;;;;;;;0.50;0.50;;;;;;;3.93;84.27;94817.63;5113515;28;20207;-85
2022/02/07 03:27:43;;;;;;;0.50;0.50;;;;;;;3.93;84.47;94832.91;5114032;28;20192;-87
2022/02/07 03:30:10;;;;;;;0.50;0.50;;;;;;;4.02;84.44;94851.56;5111754;28;20200;-85
2022/02/07 03:32:37;;;;;;;0.50;0.50;;;;;;;4.04;83.33;94863.16;5114112;28;20639;-87
2022/02/07 03:35:04;;;;;;;0.50;0.50;;;;;;;4.05;83.03;94877.50;5107712;28;20199;-85
2022/02/07 03:37:31;;;;;;;0.40;0.40;;;;;;;4.12;83.65;94900.63;5114800;28;20207;-86
2022/02/07 03:39:57;;;;;;;0.40;0.40;;;;;;;4.18;83.08;94917.03;5114769;28;20200;-86
2022/02/07 03:42:23;;;;;;;0.60;0.60;;;;;;;4.22;82.33;94934.44;5114130;28;20632;-87
2022/02/07 03:44:51;;;;;;;1.23;0.50;;;;;;;4.13;81.65;94937.88;5114509;28;20208;-85
2022/02/07 03:47:18;;;;;;;0.50;0.50;;;;;;;4.15;81.92;94936.78;5114522;28;20224;-85
2022/02/07 03:49:44;;;;;;;0.73;0.60;;;;;;;4.14;82.30;94947.91;5113725;28;20199;-86
2022/02/07 03:52:11;;;;;;;0.50;0.50;;;;;;;4.16;81.97;94952.84;5113504;28;20191;-86
2022/02/07 03:54:37;;;;;;;0.50;0.50;;;;;;;4.25;80.99;94958.78;5113268;28;20196;-84
2022/02/07 03:57:04;;;;;;;0.50;0.50;;;;;;;4.08;81.59;94963.00;5113152;28;20246;-83
2022/02/07 03:59:30;;;;;;;0.50;0.50;;;;;;;4.03;81.54;94962.69;5114092;28;20198;-83
2022/02/07 04:01:58;;;;;;;0.83;0.60;;;;;;;4.09;80.71;94973.03;5113495;28;20567;-86
2022/02/07 04:04:25;;;;;;;0.97;0.60;;;;;;;4.13;80.98;94981.97;5113768;28;20565;-86
2022/02/07 04:06:52;;;;;;;0.90;0.73;;;;;;;4.01;80.68;94983.19;5112823;28;20276;-86
2022/02/07 04:09:22;;;;;;;0.50;0.50;;;;;;;3.97;80.39;95006.56;5113903;28;20230;-86
2022/02/07 04:11:53;;;;;;;1.77;0.60;;;;;;;4.06;80.88;95018.38;5113044;28;20187;-84
2022/02/07 04:14:22;;;;;;;0.60;0.60;;;;;;;4.04;81.45;95026.16;5113666;28;20268;-86
2022/02/07 04:16:49;;;;;;;1.23;0.60;;;;;;;4.10;80.85;95024.78;5112809;28;20656;-86
2022/02/07 04:19:19;;;;;;;0.60;0.60;;;;;;;4.09;80.95;95028.28;5113776;28;20188;-86
2022/02/07 04:21:48;;;;;;;0.67;0.60;;;;;;;3.92;81.04;95055.41;5113317;28;20198;-82
2022/02/07 04:24:15;;;;;;;2.03;0.67;;;;;;;3.99;82.04;95073.44;5113967;28;20227;-85
2022/02/07 04:26:42;;;;;;;1.70;0.63;;;;;;;4.03;81.65;95073.00;5112535;28;20257;-86
2022/02/07 04:29:08;;;;;;;0.60;0.60;;;;;;;3.97;82.05;95073.56;5110692;28;20249;-82
2022/02/07 04:31:35;;;;;;;0.83;0.60;;;;;;;4.02;82.00;95091.78;5113141;28;20244;-82
2022/02/07 04:34:01;;;;;;;0.80;0.60;;;;;;;4.08;81.93;95091.16;5112535;28;20273;-85
2022/02/07 04:36:29;;;;;;;2.30;0.70;;;;;;;4.04;81.30;95100.03;5112268;28;20273;-85
2022/02/07 04:38:56;;;;;;;2.07;0.77;;;;;;;3.99;81.63;95086.97;5112647;28;20238;-86
2022/02/07 04:41:23;;;;;;;1.33;0.70;;;;;;;3.97;81.26;95099.03;5112651;28;20195;-86
2022/02/07 04:43:53;;;;;;;0.63;0.63;;;;;;;3.99;81.36;95107.34;5112710;28;20214;-84
2022/02/07 04:46:35;;;;;;;0.80;0.80;;;;;;;4.06;81.17;95105.78;5112278;28;20234;-86
2022/02/07 04:49:28;;;;;;;0.70;0.70;;;;;;;4.04;79.79;95106.91;5111429;28;20684;-86
2022/02/07 04:52:09;;;;;;;1.73;0.80;;;;;;;4.03;78.97;95095.91;5111416;28;20188;-86
2022/02/07 04:54:55;;;;;;;1.00;0.80;;;;;;;4.01;79.33;95109.75;5110786;28;20283;-84
2022/02/07 05:00:21;;;;;;;1.13;1.03;;;;;;;3.95;78.51;95120.50;5086900;28;20330;-84
2022/02/07 05:02:58;;;;;;;0.80;0.80;;;;;;;4.05;78.58;95118.66;5095736;28;20195;-85
2022/02/07 05:13:38;;;;;;;1.03;0.80;;;;;;;4.08;77.94;95136.22;5097177;28;20239;-85
2022/02/07 05:13:47;;;;;;;0.80;0.80;;;;;;;4.05;77.78;95157.66;5111050;28;20222;-86
2022/02/07 05:16:20;;;;;;;1.43;0.80;;;;;;;4.07;77.38;95158.31;5105273;28;20231;-83
2022/02/07 05:18:49;;;;;;;1.23;0.90;;;;;;;3.97;77.77;95174.66;5110439;28;20215;-85
2022/02/07 05:21:16;;;;;;;2.83;0.90;;;;;;;3.99;78.07;95168.47;5110491;28;20832;-84
2022/02/07 05:23:43;;;;;;;1.53;1.00;;;;;;;3.99;78.19;95176.09;5110126;28;20347;-84
2022/02/07 05:26:10;;;;;;;1.47;1.17;;;;;;;3.88;77.23;95201.78;5103688;28;20783;-85
2022/02/07 05:28:36;;;;;;;2.03;0.90;;;;;;;3.84;77.13;95212.41;5106565;28;20192;-85
2022/02/07 05:31:03;;;;;;;1.27;0.87;;;;;;;3.89;76.28;95221.19;5110643;28;20195;-84
2022/02/07 05:33:29;;;;;;;0.90;0.90;;;;;;;3.88;76.59;95221.34;5110304;28;20194;-87
2022/02/07 05:35:56;;;;;;;1.90;0.90;;;;;;;3.89;76.19;95220.41;5109550;28;20724;-86
2022/02/07 05:38:23;;;;;;;1.20;0.90;;;;;;;3.96;76.79;95239.25;5105892;28;20219;-86
2022/02/07 05:40:55;;;;;;;1.70;0.90;;;;;;;3.90;77.06;95255.09;5107827;28;20218;-83
2022/02/07 05:43:21;;;;;;;2.30;1.00;;;;;;;3.93;77.24;95253.09;5097517;28;20193;-84
2022/02/07 05:45:48;;;;;;;1.03;0.67;;;;;;;3.93;78.10;95272.66;5103384;28;20272;-87
2022/02/07 05:48:14;;;;;;;1.07;0.93;;;;;;;3.93;78.12;95270.09;5098563;28;20199;-84
2022/02/07 05:50:41;;;;;;;1.50;0.90;;;;;;;3.94;77.93;95282.69;5101550;28;20436;-85
2022/02/07 05:53:07;;;;;;;1.23;0.77;;;;;;;3.95;77.59;95278.41;5102790;28;20574;-86
2022/02/07 05:55:34;;;;;;;2.27;0.87;;;;;;;3.89;77.15;95295.06;5106979;28;20371;-86
2022/02/07 05:58:02;;;;;;;0.80;0.80;;;;;;;3.88;75.59;95300.28;5110463;28;20268;-84
2022/02/07 06:00:32;;;;;;;1.57;0.80;;;;;;;3.85;75.16;95300.59;5111068;28;20195;-85
2022/02/07 06:02:59;;;;;;;3.60;0.90;;;;;;;3.92;73.20;95306.69;5110127;28;20192;-86
2022/02/07 06:05:26;;;;;;;0.77;0.70;;;;;;;3.97;72.91;95318.06;5109465;28;20312;-84
2022/02/07 06:07:52;;;;;;;1.60;0.73;;;;;;;3.89;73.20;95332.44;5107708;28;20192;-86
2022/02/07 06:10:18;;;;;;;0.90;0.80;;;;;;;3.96;73.44;95338.59;5111311;28;20195;-86
2022/02/07 06:12:46;;;;;;;1.13;0.80;;;;;;;3.90;73.96;95344.25;5110441;28;20195;-87
2022/02/07 06:15:16;;;;;;;0.67;0.60;;;;;;;3.89;73.55;95363.00;5107759;27;20294;-87
2022/02/07 06:17:44;;;;;;;1.47;0.77;;;;;;;3.87;73.44;95375.06;5110752;28;20211;-84
2022/02/07 06:20:11;;;;;;;2.00;1.00;;;;;;;3.90;74.44;95397.72;5110494;28;20188;-84
2022/02/07 06:22:38;;;;;;;1.23;0.90;;;;;;;3.80;74.51;95400.31;5108715;28;20195;-86
2022/02/07 06:25:06;;;;;;;1.77;0.80;;;;;;;3.80;75.05;95415.59;5108914;28;20257;-85
2022/02/07 06:27:32;;;;;;;1.83;0.80;;;;;;;3.83;75.62;95411.97;5099815;28;20218;-84
2022/02/07 06:29:58;;;;;;;0.70;0.70;;;;;;;3.87;75.89;95431.09;5108431;28;20603;-85
2022/02/07 06:32:26;;;;;;;1.30;0.80;;;;;;;3.78;76.45;95461.56;5111242;28;20594;-85
2022/02/07 06:34:53;;;;;;;0.80;0.80;;;;;;;3.64;78.77;95459.47;5110913;28;20199;-82
2022/02/07 06:37:19;;;;;;;1.03;0.90;;;;;;;3.74;80.17;95460.22;5110355;28;20238;-83
2022/02/07 06:39:45;;;;;;;1.90;0.80;;;;;;;3.76;82.44;95480.47;5111063;28;20681;-82
2022/02/07 06:42:12;;;;;;;3.13;1.13;;;;;;;3.78;81.29;95483.66;5111117;28;20195;-82
2022/02/07 06:44:38;;;;;;;1.77;0.77;;;;;;;3.72;79.43;95492.66;5110895;28;20378;-83
2022/02/07 06:47:05;;;;;;;0.93;0.77;;;;;;;3.72;78.53;95499.50;5092444;27;20232;-85
2022/02/07 06:49:33;;;;;;;17.80;12.27;;;;;;;3.71;78.22;95503.78;5090447;28;20227;-86
2022/02/07 06:52:00;;;;;;;1.10;1.00;;;;;;;3.60;77.16;95498.84;5089358;28;20200;-85
2022/02/07 06:54:26;;;;;;;2.80;0.93;;;;;;;3.65;78.43;95511.16;5089801;28;20242;-86
2022/02/07 06:56:53;;;;;;;1.10;1.00;;;;;;;3.73;77.00;95513.81;5092514;28;20224;-84
2022/02/07 06:59:20;;;;;;;2.73;1.10;;;;;;;3.78;76.85;95524.41;5093400;28;20625;-87
2022/02/07 07:01:46;;;;;;;1.20;0.97;;;;;;;3.77;76.84;95527.91;5093403;28;20205;-86
2022/02/07 07:04:13;;;;;;;1.10;1.00;;;;;;;3.84;77.02;95539.16;5087845;28;20196;-83
2022/02/07 07:06:41;;;;;;;1.47;1.00;;;;;;;3.78;76.84;95526.97;5093403;28;20325;-86
2022/02/07 07:09:12;;;;;;;2.00;1.10;;;;;;;3.84;76.85;95539.16;5095234;28;20236;-87
2022/02/07 07:11:40;;;;;;;1.57;0.90;;;;;;;3.85;75.93;95550.91;5096200;28;20200;-87
2022/02/07 07:14:15;;;;;;;2.73;1.60;;;;;;;3.90;76.22;95558.16;5095689;28;20200;-87
2022/02/07 07:16:50;;;;;;;1.10;1.00;;;;;;;3.99;75.81;95558.16;5095177;28;20231;-87
2022/02/07 07:19:18;;;;;;;3.50;1.20;;;;;;;4.10;75.68;95564.84;5094746;28;20573;-86
2022/02/07 07:21:47;;;;;;;1.93;1.33;;;;;;;4.07;74.89;95570.19;5093929;28;20238;-84
2022/02/07 07:24:13;;;;;;;1.37;1.10;;;;;;;4.15;74.51;95573.69;5094803;28;20264;-83
2022/02/07 07:26:40;;;;;;;14.57;10.23;;;;;;;4.23;74.88;95579.84;5100870;28;20310;-86
2022/02/07 07:29:11;;;;;;;3.57;2.30;;;;;;;4.11;73.99;95576.63;5104747;28;20199;-86
2022/02/07 07:31:42;;;;;;;2.10;1.20;;;;;;;4.15;73.33;95590.72;5114391;28;20200;-87
2022/02/07 07:34:09;;;;;;;3.37;1.30;;;;;;;4.09;73.18;95588.69;5115434;28;20199;-87
2022/02/07 07:36:40;;;;;;;2.63;1.10;;;;;;;4.11;72.65;95591.91;5106777;28;20236;-87
2022/02/07 07:39:08;;;;;;;1.77;0.97;;;;;;;3.99;72.90;95593.81;5094418;28;20227;-87
2022/02/07 07:41:35;;;;;;;3.17;1.20;;;;;;;4.06;71.85;95597.41;5093976;28;20204;-86
2022/02/07 07:44:01;;;;;;;2.73;1.03;;;;;;;4.04;71.80;95608.72;5100849;28;20474;-87
2022/02/07 07:46:30;;;;;;;1.80;1.00;;;;;;;3.96;71.35;95616.22;5101556;28;20243;-85
2022/02/07 07:49:01;;;;;;;2.00;1.40;;;;;;;3.94;71.57;95618.88;5095706;28;20196;-86
2022/02/07 07:51:35;;;;;;;1.77;1.10;;;;;;;3.95;70.82;95623.03;5094158;28;20236;-86
2022/02/07 07:54:18;;;;;;;3.10;1.30;;;;;;;3.96;70.98;95619.56;5081471;28;20569;-86
2022/02/07 08:02:16;;;;;;;2.23;1.37;;;;;;;3.93;69.73;95641.94;5088042;28;20224;-87
2022/02/07 08:04:45;;;;;;;1.90;1.03;;;;;;;4.01;69.64;95647.97;5092895;28;20231;-87
2022/02/07 08:07:17;;;;;;;2.57;1.33;;;;;;;4.13;70.00;95664.72;5109883;28;20455;-86
2022/02/07 08:10:25;;;;;;;5.77;1.90;;;;;;;4.23;69.16;95651.19;5127959;22;20566;-87
2022/02/07 08:12:53;;;;;;;4.37;1.50;;;;;;;4.08;68.80;95658.41;5099621;28;20227;-85
2022/02/07 08:15:21;;;;;;;2.50;1.17;;;;;;;4.09;68.07;95665.13;5081396;28;20229;-85
2022/02/07 08:17:47;;;;;;;2.60;1.23;;;;;;;4.18;67.97;95671.97;5087985;28;20200;-85
2022/02/07 08:20:14;;;;;;;2.30;1.30;;;;;;;4.22;68.41;95680.16;5086111;28;20224;-86
2022/02/07 08:22:40;;;;;;;3.73;1.33;;;;;;;4.22;68.21;95686.06;5083788;28;20201;-85
2022/02/07 08:25:07;;;;;;;10.33;6.97;;;;;;;4.16;68.20;95681.50;5077894;28;20239;-85
2022/02/07 08:27:34;;;;;;;8.20;4.50;;;;;;;4.24;68.65;95703.75;5077500;28;20211;-86
2022/02/07 08:30:02;;;;;;;2.07;1.40;;;;;;;4.05;68.83;95699.44;5079307;28;20630;-85
2022/02/07 08:32:28;;;;;;;2.97;1.37;;;;;;;4.04;69.44;95710.59;5079852;28;20200;-85
2022/02/07 08:34:59;;;;;;;2.70;1.10;;;;;;;4.01;69.99;95709.13;5080645;28;20589;-86
2022/02/07 08:37:26;;;;;;;1.27;1.00;;;;;;;4.10;70.67;95710.84;5079360;28;20220;-85
2022/02/07 08:39:52;;;;;;;6.97;2.30;;;;;;;4.06;69.78;95719.69;5071788;28;20270;-85
2022/02/07 08:42:19;;;;;;;2.67;1.50;;;;;;;4.08;71.05;95735.66;5058318;28;20210;-84
2022/02/07 08:44:45;;;;;;;3.47;1.40;;;;;;;4.31;69.91;95741.31;5057051;28;20224;-85
2022/02/07 08:47:13;;;;;;;5.27;1.77;;;;;;;4.25;68.79;95749.47;5068497;28;20217;-85
2022/02/07 08:49:39;;;;;;;3.10;1.30;;;;;;;4.21;68.55;95760.91;5076126;28;20201;-84
2022/02/07 08:52:07;;;;;;;2.53;1.30;;;;;;;4.21;68.88;95757.53;5075266;28;20204;-85
2022/02/07 08:54:34;;;;;;;3.30;1.20;;;;;;;4.00;68.92;95765.28;5068395;28;20208;-85
2022/02/07 08:57:12;;;;;;;2.73;1.30;;;;;;;3.94;69.22;95778.53;5078304;28;20651;-85
2022/02/07 08:59:51;;;;;;;4.93;1.40;;;;;;;3.99;68.75;95778.97;5075587;28;20220;-85
2022/02/07 09:02:34;;;;;;;5.87;1.40;;;;;;;4.00;69.02;95790.78;5078072;28;20204;-86
2022/02/07 09:05:16;;;;;;;7.20;1.50;;;;;;;4.06;68.87;95800.41;5069625;28;20201;-86
2022/02/07 09:07:48;;;;;;;4.73;1.57;;;;;;;4.00;69.16;95796.66;5075050;28;20200;-85
2022/02/07 09:10:15;;;;;;;3.97;1.37;;;;;;;3.96;69.29;95802.94;5089411;28;20226;-85
2022/02/07 09:12:44;;;;;;;2.93;1.43;;;;;;;3.95;69.97;95813.28;5077466;28;20207;-85
2022/02/07 09:15:29;;;;;;;2.83;1.10;;;;;;;4.06;68.48;95806.31;5077194;28;20235;-85
2022/02/07 09:18:02;;;;;;;3.93;1.47;;;;;;;4.39;68.36;95810.28;5077159;28;20197;-85
2022/02/07 09:20:29;;;;;;;6.10;2.03;;;;;;;4.46;67.31;95828.38;5076801;28;20216;-85
2022/02/07 09:22:56;;;;;;;5.17;1.40;;;;;;;4.50;68.52;95839.91;5078054;28;20201;-86
2022/02/07 09:25:22;;;;;;;1.60;1.10;;;;;;;4.55;67.83;95829.34;5076715;28;20865;-85
2022/02/07 09:27:49;;;;;;;5.47;1.77;;;;;;;4.58;66.89;95837.53;5057349;28;20201;-85
2022/02/07 09:30:15;;;;;;;4.80;1.50;;;;;;;4.57;66.94;95835.09;5057295;28;20217;-85
2022/02/07 09:32:45;;;;;;;4.10;1.30;;;;;;;4.54;65.31;95838.72;5057325;28;20208;-87
2022/02/07 09:35:13;;;;;;;4.37;1.30;;;;;;;4.95;65.08;95839.41;5057152;28;20201;-86
2022/02/07 09:37:40;;;;;;;2.83;1.40;;;;;;;5.21;63.94;95842.97;5059022;28;20197;-86
2022/02/07 09:40:07;;;;;;;3.53;1.30;;;;;;;5.24;63.48;95847.00;5069502;28;20776;-85
2022/02/07 09:42:35;;;;;;;3.83;1.50;;;;;;;5.11;63.81;95860.88;5077094;28;20207;-86
2022/02/07 09:45:09;;;;;;;4.13;1.40;;;;;;;5.03;64.20;95870.13;5077004;28;20286;-85
2022/02/07 09:47:38;;;;;;;4.60;1.47;;;;;;;4.99;64.50;95871.38;5072034;28;20207;-84
2022/02/07 09:50:06;;;;;;;5.50;1.70;;;;;;;4.88;64.69;95885.03;5074931;28;20208;-85
2022/02/07 09:52:34;;;;;;;6.87;1.67;;;;;;;4.68;65.19;95876.56;5077420;28;20216;-85
2022/02/07 09:55:01;;;;;;;5.70;1.90;;;;;;;4.60;66.07;95893.50;5075825;28;20862;-86
2022/02/07 09:57:27;;;;;;;8.73;5.60;;;;;;;4.57;66.66;95902.22;5076175;28;20196;-85
2022/02/07 09:59:55;;;;;;;3.63;1.77;;;;;;;4.49;66.41;95907.94;5077487;28;20251;-86
2022/02/07 10:02:30;;;;;;;4.57;1.37;;;;;;;4.45;66.29;95913.44;5078143;28;20193;-86
2022/02/07 10:05:01;;;;;;;5.20;1.53;;;;;;;4.54;66.92;95910.13;5076608;28;20189;-86
2022/02/07 10:07:36;;;;;;;3.23;1.50;;;;;;;4.55;66.73;95910.91;5076240;28;20224;-86
2022/02/07 10:10:20;;;;;;;4.50;1.60;;;;;;;4.64;66.36;95910.13;5076315;28;20220;-86
2022/02/07 10:15:36;;;;;;;2.40;1.13;;;;;;;4.62;66.47;95922.22;5070813;28;20199;-85
2022/02/07 10:18:11;;;;;;;4.70;1.43;;;;;;;4.64;66.09;95933.88;5075198;28;20220;-85
2022/02/07 10:35:21;;;;;;;4.67;1.57;;;;;;;4.65;66.20;95961.00;5085562;28;20207;-85
2022/02/07 10:38:11;;;;;;;3.63;1.50;;;;;;;4.51;66.28;95971.56;5082845;28;20200;-86
2022/02/07 10:40:41;;;;;;;5.47;1.47;;;;;;;4.67;66.14;95960.88;5083230;28;20685;-86
2022/02/07 10:43:22;;;;;;;6.73;2.37;;;;;;;4.68;66.38;95965.03;5081058;28;20220;-86
2022/02/07 10:46:01;;;;;;;6.90;3.03;;;;;;;4.64;67.08;95972.13;5082476;28;20239;-86
2022/02/07 10:48:33;;;;;;;1.97;1.60;;;;;;;4.69;67.66;95977.66;5083280;28;20311;-85
2022/02/07 10:51:19;;;;;;;3.80;1.30;;;;;;;4.71;65.74;95972.44;5081442;28;20216;-85
2022/02/07 10:53:48;;;;;;;4.20;1.60;;;;;;;4.63;65.94;95973.06;5071149;28;20232;-86
2022/02/07 10:56:18;;;;;;;3.63;1.43;;;;;;;4.65;65.69;95975.47;5080918;28;20644;-85
2022/02/07 10:58:48;;;;;;;3.30;1.47;;;;;;;4.65;66.65;95994.16;5081383;28;20240;-86
2022/02/07 11:01:19;;;;;;;4.17;1.50;;;;;;;4.52;65.62;95988.47;5081851;28;20208;-86
2022/02/07 11:03:50;;;;;;;3.57;1.33;;;;;;;4.62;66.09;95985.97;5081765;28;20201;-86
2022/02/07 11:06:22;;;;;;;4.47;1.53;;;;;;;4.66;66.14;95993.22;5081062;28;21687;-85
2022/02/07 11:09:05;;;;;;;5.03;1.40;;;;;;;4.70;66.99;95997.13;5081693;28;20201;-86
2022/02/07 11:14:42;;;;;;;6.10;3.33;;;;;;;4.50;67.29;96018.38;5068225;28;20244;-86
2022/02/07 11:17:26;;;;;;;3.40;1.60;;;;;;;4.50;67.17;96020.94;5080381;28;20247;-86
2022/02/07 11:20:03;;;;;;;4.87;1.60;;;;;;;4.35;67.77;96019.69;5079783;28;20744;-86
2022/02/07 11:25:26;;;;;;;5.17;1.73;;;;;;;4.31;69.01;96033.59;5079728;28;20242;-85
2022/02/07 11:27:57;;;;;;;3.20;1.50;;;;;;;4.39;68.54;96038.88;5078699;28;20189;-86
2022/02/07 11:30:46;;;;;;;3.27;1.47;;;;;;;4.45;68.31;96040.91;5079648;28;20281;-85
2022/02/07 11:33:33;;;;;;;5.90;1.60;;;;;;;4.55;68.25;96040.97;5073084;28;20248;-86
2022/02/07 11:36:00;;;;;;;7.13;1.87;;;;;;;4.56;68.34;96043.38;5079907;28;20229;-84
2022/02/07 11:38:27;;;;;;;4.33;1.80;;;;;;;4.62;67.82;96055.59;5079882;28;20212;-85
2022/02/07 11:41:02;;;;;;;3.70;1.50;;;;;;;4.46;68.86;96065.47;5077603;28;20274;-86
2022/02/07 11:43:31;;;;;;;3.10;1.40;;;;;;;4.46;68.32;96063.72;5078522;28;20247;-85
2022/02/07 11:46:03;;;;;;;3.93;1.30;;;;;;;4.53;68.40;96065.78;5079473;28;20685;-85
2022/02/07 11:48:36;;;;;;;2.03;1.30;;;;;;;4.44;67.72;96060.50;5079090;28;20388;-85
2022/02/07 11:51:09;;;;;;;2.07;1.23;;;;;;;4.47;67.37;96067.88;5078451;28;20213;-85
2022/02/07 11:53:39;;;;;;;7.73;4.93;;;;;;;4.51;67.68;96081.19;5079105;28;20200;-85
2022/02/07 11:56:09;;;;;;;4.13;1.67;;;;;;;4.50;67.68;96079.59;5077439;28;20280;-85
2022/02/07 11:58:47;;;;;;;5.53;1.80;;;;;;;4.55;68.06;96089.41;5078387;28;20224;-85
2022/02/07 12:01:24;;;;;;;4.90;1.60;;;;;;;4.61;67.44;96092.28;5077406;28;20216;-86
2022/02/07 12:03:54;;;;;;;3.97;1.43;;;;;;;4.66;67.96;96085.03;5078066;28;20204;-85
2022/02/07 12:06:24;;;;;;;2.93;1.50;;;;;;;4.73;67.42;96080.22;5077713;28;20284;-86
2022/02/07 12:08:53;;;;;;;3.80;1.67;;;;;;;4.70;67.15;96091.50;5076483;28;20220;-86
2022/02/07 12:11:20;;;;;;;3.50;1.30;;;;;;;4.68;67.05;96090.81;5077322;28;20221;-86
2022/02/07 12:13:47;;;;;;;4.73;1.40;;;;;;;4.70;66.78;96103.44;5077982;28;20206;-86
2022/02/07 12:16:19;;;;;;;4.07;1.40;;;;;;;4.70;67.00;96096.59;5077880;28;20231;-86
2022/02/07 12:19:08;;;;;;;2.80;1.47;;;;;;;4.76;67.06;96111.38;5076600;28;20767;-85
2022/02/07 12:21:35;;;;;;;4.60;1.47;;;;;;;4.78;66.26;96101.06;5072476;28;20284;-86
2022/02/07 12:24:03;;;;;;;6.73;1.50;;;;;;;4.74;67.29;96095.41;5075613;28;20232;-86
2022/02/07 12:26:36;;;;;;;2.43;1.40;;;;;;;4.84;67.21;96097.97;5076287;28;20201;-87
2022/02/07 12:32:11;;;;;;;3.57;1.43;;;;;;;4.71;67.07;96120.34;5075920;28;20312;-86
2022/02/07 12:34:40;;;;;;;2.33;1.40;;;;;;;4.82;68.15;96110.06;5076676;28;20201;-85
2022/02/07 12:37:06;;;;;;;3.53;1.40;;;;;;;4.77;66.32;96114.75;5068569;28;20193;-86
2022/02/07 12:39:36;;;;;;;2.70;1.53;;;;;;;4.82;67.18;96118.50;5077541;28;20250;-85
2022/02/07 12:42:05;;;;;;;4.10;1.67;;;;;;;4.92;67.31;96133.06;5078808;28;20224;-86
2022/02/07 12:44:31;;;;;;;3.00;1.40;;;;;;;4.79;67.19;96120.53;5077819;28;20614;-86
2022/02/07 12:46:58;;;;;;;4.13;1.77;;;;;;;4.82;66.98;96127.91;5077024;28;20559;-86
2022/02/07 12:49:26;;;;;;;3.77;2.17;;;;;;;4.71;67.49;96122.91;5078243;28;20185;-86
2022/02/07 12:51:52;;;;;;;4.50;1.40;;;;;;;4.73;67.59;96133.78;5078907;28;20320;-86
2022/02/07 12:54:20;;;;;;;4.53;1.60;;;;;;;4.84;68.23;96143.91;5076379;28;20549;-87
2022/02/07 12:56:49;;;;;;;4.83;1.80;;;;;;;4.85;67.71;96151.44;5078772;28;20227;-85
2022/02/07 12:59:16;;;;;;;4.87;1.70;;;;;;;4.72;67.19;96135.53;5071073;28;20227;-86
2022/02/07 13:01:45;;;;;;;2.73;1.50;;;;;;;4.72;67.58;96150.03;5080710;28;20285;-86
2022/02/07 13:04:15;;;;;;;7.03;1.77;;;;;;;4.73;67.42;96133.78;5086141;28;20208;-87
2022/02/07 13:06:48;;;;;;;5.40;1.70;;;;;;;4.66;67.75;96158.97;5081315;28;20197;-86
2022/02/07 13:09:19;;;;;;;4.30;1.77;;;;;;;4.65;67.27;96167.56;5075222;28;20185;-86
2022/02/07 13:11:48;;;;;;;5.83;2.00;;;;;;;4.69;67.71;96173.22;5080643;28;20228;-85
2022/02/07 13:14:48;;;;;;;2.80;1.30;;;;;;;4.62;67.99;96183.13;5075153;28;20201;-86
2022/02/07 13:17:15;;;;;;;2.07;1.40;;;;;;;4.55;67.91;96176.09;5033890;28;20200;-86
2022/02/07 13:19:43;;;;;;;7.10;3.40;;;;;;;4.62;68.24;96189.97;5080447;28;20227;-85
2022/02/07 13:22:16;;;;;;;5.03;2.20;;;;;;;4.60;68.18;96186.75;5079624;28;20208;-85
2022/02/07 13:24:42;;;;;;;2.23;1.50;;;;;;;4.51;68.17;96178.09;5073949;28;20264;-86
2022/02/07 13:27:11;;;;;;;5.07;1.80;;;;;;;4.47;68.62;96180.06;5077897;28;20192;-85
2022/02/07 13:29:44;;;;;;;3.67;1.30;;;;;;;4.58;68.40;96184.31;5077966;28;20667;-85
2022/02/07 13:32:11;;;;;;;2.83;1.77;;;;;;;4.59;68.64;96193.59;5077226;28;20688;-85